This is the latest recevied weather packets stored in our database for station/object WX5II-2. If no packets are shown the sender has not sent any weather packets the latest 1 day(s).
| Time | Temp. | Humidity | Pressure | Rain* | Wind** | Luminosity | Snow |
|---|---|---|---|---|---|---|---|
| 1778107757 | 28.33° C | 49% | 1008.4 hPa | 0 mm | 0 m/s | - | - |
| 1778105884 | 28.89° C | 46% | 1007.4 hPa | 0 mm | 0 m/s | - | - |
| 1778103390 | 30° C | 45% | 1007.4 hPa | 0 mm | 0 m/s | - | - |
| 1778100896 | 28.89° C | 50% | 1008.4 hPa | 0 mm | 0 m/s | - | - |
| 1778099649 | 28.33° C | 54% | 1008.4 hPa | 0 mm | 0 m/s | - | - |
| 1778097155 | 27.22° C | 59% | 1009.4 hPa | 0 mm | 0 m/s | - | - |
| 1778094040 | 25.56° C | 65% | 1010.4 hPa | 0 mm | 0 m/s | - | - |
| 1778093417 | 26.11° C | 65% | 1010.4 hPa | 0 mm | 0 m/s | - | - |
| 1778092793 | 26.11° C | 63% | 1010.4 hPa | 0 mm | 0 m/s | - | - |
| 1778090924 | 27.22° C | 59% | 1010.4 hPa | 0 mm | 0 m/s | - | - |
| 1778087185 | 26.11° C | 67% | 1010.4 hPa | 0 mm | 0 m/s | - | - |
| 1778086561 | 26.11° C | 66% | 1010.4 hPa | 0 mm | 0 m/s | - | - |
| 1778077216 | 24.44° C | 80% | 1009.4 hPa | 0 mm | 0 m/s | - | - |
| 1778076593 | 24.44° C | 81% | 1009.4 hPa | 0 mm | 0 m/s | - | - |
| 1778075970 | 24.44° C | 81% | 1009.4 hPa | 0 mm | 0 m/s | - | - |
| 1778075348 | 23.89° C | 81% | 1009.4 hPa | 0 mm | 0 m/s | - | - |
| 1778071610 | 23.33° C | 82% | 1008.4 hPa | 0 mm | 0 m/s | - | - |
| 1778070365 | 23.33° C | 82% | 1008.4 hPa | 0 mm | 0 m/s | - | - |
| 1778069742 | 23.33° C | 82% | 1008.4 hPa | 0 mm | 0 m/s | - | - |
| 1778068493 | 23.33° C | 82% | 1008.4 hPa | 0 mm | 0 m/s | - | - |
| 1778067247 | 23.33° C | 82% | 1008.4 hPa | 0 mm | 0 m/s | - | - |
| 1778066625 | 23.33° C | 81% | 1008.4 hPa | 0 mm | 0 m/s | - | - |
| 1778066001 | 23.33° C | 80% | 1008.4 hPa | 0 mm | 0 m/s | - | - |
| 1778061019 | 23.89° C | 78% | 1008.4 hPa | 0 mm | 0 m/s | - | - |
| 1778060395 | 23.89° C | 78% | 1008.4 hPa | 0 mm | 0 m/s | - | - |
* Rain latest hour (hover to see other rain measurements)
** Current wind speed in m/s (hover to see current wind gust speed)